YSWG/WGA METAR and TAF weather

Enter ICAO airport designator
Station Type Date Time Source
YSWG METAR 2019/02/16 07:00 UTC NOAA

YSWG 160700Z AUTO 23002KT 9999 // NCD 32/04 Q1014


Station Type Date Time Source
YSWG Decoded METAR 2019/02/16 07:00 UTC NOAA

Wagga Airport, Australia (YSWG) 35-09S 147-27E 213M
Feb 16, 2019 - 02:00 AM EST / 2019.02.16 0700 UTC
Wind: from the SW (230 degrees) at 2 MPH (2 KT):0
Visibility: greater than 7 mile(s):0
Temperature: 89 F (32 C)
Dew Point: 39 F (4 C)
Relative Humidity: 17%
Pressure (altimeter): 29.94 in. Hg (1014 hPa)
ob: YSWG 160700Z AUTO 23002KT 9999 // NCD 32/04 Q1014
cycle: 7

Station Type Date Time Source
YSWG TAF 2018/05/25 18:03 UTC NOAA

TAF YSWG 251649Z 2518/2608 07008KT CAVOK


Example: see airport list